createdAt,value
2023-05-13T00:00:01.963Z,196.32
2023-05-13T00:01:01.990Z,202.32
2023-05-13T00:02:01.969Z,193.85
2023-05-13T00:03:02.053Z,189.85
2023-05-13T00:04:01.984Z,197.80
2023-05-13T00:05:02.014Z,192.41
2023-05-13T00:06:02.034Z,190.71
2023-05-13T00:07:02.012Z,190.02
2023-05-13T00:08:02.164Z,190.28
2023-05-13T00:09:02.019Z,196.27
2023-05-13T00:10:02.023Z,194.99
2023-05-13T00:11:02.012Z,194.52
2023-05-13T00:12:02.015Z,198.70
2023-05-13T00:13:02.024Z,198.47
2023-05-13T00:14:02.030Z,189.85
2023-05-13T00:15:02.038Z,200.30
2023-05-13T00:16:02.081Z,192.85
2023-05-13T00:17:02.061Z,192.93
2023-05-13T00:18:02.096Z,190.30
2023-05-13T00:19:02.095Z,192.44
2023-05-13T00:20:02.066Z,194.49
2023-05-13T00:21:02.064Z,191.61
2023-05-13T00:22:02.075Z,193.06
2023-05-13T00:23:02.077Z,190.56
2023-05-13T00:24:02.080Z,194.87
2023-05-13T00:25:02.073Z,193.70
2023-05-13T00:26:02.075Z,189.10
2023-05-13T00:27:02.082Z,196.53
2023-05-13T00:28:02.092Z,197.12
2023-05-13T00:29:02.108Z,192.94
2023-05-13T00:30:02.102Z,192.10
2023-05-13T00:31:02.114Z,197.37
2023-05-13T00:32:02.152Z,192.06
2023-05-13T00:33:02.179Z,191.78
2023-05-13T00:34:02.127Z,192.74
2023-05-13T00:35:02.150Z,193.78
2023-05-13T00:36:02.121Z,191.39
2023-05-13T00:37:02.120Z,192.19
2023-05-13T00:38:02.125Z,199.46
2023-05-13T00:39:02.125Z,198.40
2023-05-13T00:40:02.151Z,196.46
2023-05-13T00:41:02.164Z,196.33
2023-05-13T00:42:02.163Z,196.58
2023-05-13T00:43:02.168Z,194.14
2023-05-13T00:44:02.156Z,188.66
2023-05-13T00:45:02.164Z,197.53
2023-05-13T00:46:02.267Z,186.95
2023-05-13T00:47:02.167Z,197.46
2023-05-13T00:48:02.264Z,192.69
2023-05-13T00:49:02.193Z,193.30
2023-05-13T00:50:02.200Z,197.17
2023-05-13T00:51:02.180Z,198.81
2023-05-13T00:52:02.183Z,193.01
2023-05-13T00:53:02.190Z,197.57
2023-05-13T00:54:02.201Z,192.77
2023-05-13T00:55:02.217Z,197.48
2023-05-13T00:56:02.221Z,200.45
2023-05-13T00:57:02.218Z,194.03
2023-05-13T00:58:02.223Z,196.87
2023-05-13T00:59:02.231Z,200.19
2023-05-13T01:00:02.220Z,191.51
2023-05-13T01:01:02.262Z,196.43
2023-05-13T01:02:02.327Z,193.77
2023-05-13T01:03:02.302Z,197.94
2023-05-13T01:04:02.249Z,188.82
2023-05-13T01:05:02.259Z,195.02
2023-05-13T01:06:02.261Z,193.97
2023-05-13T01:07:02.267Z,196.55
2023-05-13T01:08:02.283Z,194.36
2023-05-13T01:09:02.286Z,195.66
2023-05-13T01:10:02.307Z,190.56
2023-05-13T01:11:02.319Z,196.99
2023-05-13T01:12:02.302Z,196.65
2023-05-13T01:13:02.775Z,194.68
2023-05-13T01:14:02.323Z,200.08
2023-05-13T01:15:02.331Z,191.47
2023-05-13T01:16:02.340Z,190.43
2023-05-13T01:17:02.518Z,191.55
2023-05-13T01:18:02.895Z,193.79
2023-05-13T01:19:02.423Z,195.04
2023-05-13T01:20:02.383Z,200.76
2023-05-13T01:21:02.374Z,189.34
2023-05-13T01:22:02.378Z,193.34
2023-05-13T01:23:02.445Z,191.73
2023-05-13T01:24:02.434Z,191.10
2023-05-13T01:25:02.408Z,187.33
2023-05-13T01:26:02.433Z,199.76
2023-05-13T01:27:02.448Z,198.25
2023-05-13T01:28:02.464Z,194.74
2023-05-13T01:29:02.457Z,194.85
2023-05-13T01:30:02.463Z,193.64
2023-05-13T01:31:02.521Z,190.93
2023-05-13T01:32:02.494Z,192.34
2023-05-13T01:33:02.569Z,198.41
2023-05-13T01:34:02.502Z,200.63
2023-05-13T01:35:02.525Z,192.43
2023-05-13T01:36:02.537Z,196.83
2023-05-13T01:37:02.561Z,197.49
2023-05-13T01:38:02.577Z,199.55
2023-05-13T01:39:02.561Z,188.99
2023-05-13T01:40:04.543Z,190.77
2023-05-13T01:41:03.567Z,191.13
2023-05-13T01:42:02.547Z,191.74
2023-05-13T01:43:02.543Z,193.01
2023-05-13T01:44:02.543Z,194.52
2023-05-13T01:45:02.546Z,190.16
2023-05-13T01:46:02.563Z,196.60
2023-05-13T01:47:02.528Z,193.51
2023-05-13T01:48:02.606Z,198.17
2023-05-13T01:49:02.512Z,191.84
2023-05-13T01:50:02.512Z,195.36
2023-05-13T01:51:02.498Z,190.33
2023-05-13T01:52:02.486Z,198.74
2023-05-13T01:53:02.498Z,191.73
2023-05-13T01:54:02.487Z,190.06
2023-05-13T01:55:02.481Z,197.75
2023-05-13T01:56:02.459Z,196.27
2023-05-13T01:57:02.463Z,193.57
2023-05-13T01:58:02.466Z,190.66
2023-05-13T01:59:02.442Z,197.14
2023-05-13T02:00:02.431Z,191.59
2023-05-13T02:01:02.428Z,194.96
2023-05-13T02:02:02.520Z,196.46
2023-05-13T02:03:02.492Z,197.75
2023-05-13T02:04:02.539Z,194.45
2023-05-13T02:05:02.398Z,189.26
2023-05-13T02:06:02.405Z,193.99
2023-05-13T02:07:02.381Z,202.21
2023-05-13T02:08:02.382Z,194.44
2023-05-13T02:09:02.368Z,188.16
2023-05-13T02:10:02.362Z,194.16
2023-05-13T02:11:02.349Z,191.65
2023-05-13T02:12:02.344Z,192.66
2023-05-13T02:13:02.437Z,195.98
2023-05-13T02:14:02.359Z,197.70
2023-05-13T02:15:02.341Z,195.26
2023-05-13T02:16:02.362Z,195.01
2023-05-13T02:17:02.318Z,200.39
2023-05-13T02:18:02.376Z,194.21
2023-05-13T02:19:02.371Z,191.87
2023-05-13T02:20:02.334Z,196.85
2023-05-13T02:21:02.365Z,195.99
2023-05-13T02:22:02.357Z,191.39
2023-05-13T02:23:02.367Z,194.17
2023-05-13T02:24:02.369Z,196.55
2023-05-13T02:25:02.378Z,194.10
2023-05-13T02:26:02.409Z,191.21
2023-05-13T02:27:02.397Z,194.35
2023-05-13T02:28:02.409Z,192.45
2023-05-13T02:29:02.438Z,188.29
2023-05-13T02:30:02.442Z,191.97
2023-05-13T02:31:02.452Z,194.04
2023-05-13T02:32:02.493Z,196.20
2023-05-13T02:33:02.620Z,193.68
2023-05-13T02:34:02.519Z,196.85
2023-05-13T02:35:02.514Z,193.07
2023-05-13T02:36:02.544Z,192.38
2023-05-13T02:37:02.557Z,201.99
2023-05-13T02:38:02.552Z,196.60
2023-05-13T02:39:02.572Z,191.16
2023-05-13T02:40:02.562Z,190.30
2023-05-13T02:41:02.599Z,196.38
2023-05-13T02:42:02.595Z,198.73
2023-05-13T02:43:02.609Z,199.64
2023-05-13T02:44:02.639Z,196.87
2023-05-13T02:45:02.642Z,190.62
2023-05-13T02:46:02.724Z,192.05
2023-05-13T02:47:02.688Z,194.17
2023-05-13T02:48:02.760Z,187.50
2023-05-13T02:49:02.693Z,197.82
2023-05-13T02:50:02.702Z,191.87
2023-05-13T02:51:02.724Z,190.29
2023-05-13T02:52:02.746Z,189.06
2023-05-13T02:53:02.761Z,197.15
2023-05-13T02:54:02.752Z,198.90
2023-05-13T02:55:02.838Z,190.06
2023-05-13T02:56:02.797Z,191.90
2023-05-13T02:57:02.801Z,194.59
2023-05-13T02:58:02.847Z,193.07
2023-05-13T02:59:02.836Z,190.63
2023-05-13T03:00:02.871Z,192.80
2023-05-13T03:01:02.899Z,191.64
2023-05-13T03:02:02.901Z,191.83
2023-05-13T03:03:02.995Z,196.41
2023-05-13T03:04:02.934Z,192.74
2023-05-13T03:05:02.946Z,190.22
2023-05-13T03:06:02.952Z,194.79
2023-05-13T03:07:02.959Z,189.49
2023-05-13T03:08:02.988Z,191.06
2023-05-13T03:09:02.998Z,194.54
2023-05-13T03:10:03.010Z,192.87
2023-05-13T03:11:03.038Z,197.54
2023-05-13T03:12:03.102Z,196.37
2023-05-13T03:13:03.099Z,193.33
2023-05-13T03:14:03.115Z,195.14
2023-05-13T03:15:03.106Z,191.10
2023-05-13T03:16:03.194Z,190.33
2023-05-13T03:17:03.161Z,192.63
2023-05-13T03:18:03.333Z,197.01
2023-05-13T03:19:03.235Z,194.29
2023-05-13T03:20:03.207Z,191.96
2023-05-13T03:21:03.239Z,189.94
2023-05-13T03:22:03.244Z,197.71
2023-05-13T03:23:03.255Z,192.33
2023-05-13T03:24:03.281Z,192.45
2023-05-13T03:25:03.322Z,192.34
2023-05-13T03:26:03.336Z,190.81
2023-05-13T03:27:03.330Z,190.40
2023-05-13T03:28:03.366Z,192.34
2023-05-13T03:29:03.384Z,189.96
2023-05-13T03:30:03.406Z,190.03
2023-05-13T03:31:03.452Z,188.07
2023-05-13T03:32:03.451Z,200.36
2023-05-13T03:33:03.510Z,195.59
2023-05-13T03:34:03.486Z,190.65
2023-05-13T03:35:03.509Z,197.94
2023-05-13T03:36:03.528Z,195.02
2023-05-13T03:37:03.567Z,193.63
2023-05-13T03:38:03.599Z,191.96
2023-05-13T03:39:03.604Z,189.53
2023-05-13T03:40:03.620Z,196.39
2023-05-13T03:41:03.669Z,189.25
2023-05-13T03:42:03.680Z,192.53
2023-05-13T03:43:03.683Z,188.59
2023-05-13T03:44:03.715Z,191.44
2023-05-13T03:45:03.722Z,186.90
2023-05-13T03:46:03.732Z,196.38
2023-05-13T03:47:03.874Z,191.01
2023-05-13T03:48:03.845Z,192.97
2023-05-13T03:49:03.792Z,194.27
2023-05-13T03:50:03.811Z,192.27
2023-05-13T03:51:03.831Z,194.08
2023-05-13T03:52:03.863Z,197.31
2023-05-13T03:53:03.868Z,200.78
2023-05-13T03:54:03.905Z,191.38
2023-05-13T03:55:03.921Z,190.79
2023-05-13T03:56:03.936Z,194.92
2023-05-13T03:57:03.973Z,187.21
2023-05-13T03:58:03.982Z,190.52
2023-05-13T03:59:04.031Z,193.56
2023-05-13T04:00:04.010Z,189.18
2023-05-13T04:01:04.046Z,186.27
2023-05-13T04:02:04.130Z,196.52
2023-05-13T04:03:04.138Z,191.74
2023-05-13T04:04:04.132Z,193.24
2023-05-13T04:05:04.153Z,193.17
2023-05-13T04:06:04.159Z,186.44
2023-05-13T04:07:04.191Z,193.55
2023-05-13T04:08:04.212Z,194.28
2023-05-13T04:09:04.232Z,195.77
2023-05-13T04:10:04.248Z,190.78
2023-05-13T04:11:04.308Z,197.12
2023-05-13T04:12:04.314Z,194.00
2023-05-13T04:13:04.314Z,195.59
2023-05-13T04:14:04.341Z,188.31
2023-05-13T04:15:04.371Z,190.69
2023-05-13T04:16:04.390Z,194.27
2023-05-13T04:17:04.539Z,190.82
2023-05-13T04:18:04.525Z,185.55
2023-05-13T04:19:04.519Z,187.54
2023-05-13T04:20:04.489Z,191.23
2023-05-13T04:21:04.522Z,190.48
2023-05-13T04:22:04.514Z,195.70
2023-05-13T04:23:04.529Z,190.75
2023-05-13T04:24:04.597Z,189.00
2023-05-13T04:25:04.581Z,194.18
2023-05-13T04:26:04.600Z,191.07
2023-05-13T04:27:04.666Z,189.02
2023-05-13T04:28:04.644Z,188.88
2023-05-13T04:29:04.667Z,189.51
2023-05-13T04:30:04.683Z,184.78
2023-05-13T04:31:04.709Z,183.50
2023-05-13T04:32:04.773Z,192.63
2023-05-13T04:33:04.809Z,187.10
2023-05-13T04:34:04.783Z,185.06
2023-05-13T04:35:04.781Z,197.56
2023-05-13T04:36:04.795Z,189.14
2023-05-13T04:37:04.827Z,192.83
2023-05-13T04:38:04.874Z,191.94
2023-05-13T04:39:05.399Z,183.32
2023-05-13T04:40:04.926Z,183.70
2023-05-13T04:41:04.935Z,188.12
2023-05-13T04:42:04.972Z,195.27
2023-05-13T04:43:04.971Z,190.74
2023-05-13T04:44:04.986Z,189.09
2023-05-13T04:45:05.008Z,185.30
2023-05-13T04:46:05.089Z,192.53
2023-05-13T04:47:05.051Z,193.87
2023-05-13T04:48:05.132Z,190.02
2023-05-13T04:49:05.080Z,195.76
2023-05-13T04:50:05.100Z,188.97
2023-05-13T04:51:05.116Z,190.71
2023-05-13T04:52:05.128Z,182.76
2023-05-13T04:53:05.169Z,179.88
2023-05-13T04:54:05.173Z,193.91
2023-05-13T04:55:05.240Z,195.93
2023-05-13T04:56:05.227Z,182.15
2023-05-13T04:57:05.237Z,190.90
2023-05-13T04:58:05.321Z,184.71
2023-05-13T04:59:05.291Z,189.72
2023-05-13T05:00:05.330Z,183.10
2023-05-13T05:01:05.328Z,186.71
2023-05-13T05:02:05.464Z,185.45
2023-05-13T05:03:05.421Z,185.50
2023-05-13T05:04:05.438Z,185.23
2023-05-13T05:05:05.412Z,184.26
2023-05-13T05:06:05.436Z,185.12
2023-05-13T05:07:05.452Z,193.25
2023-05-13T05:08:05.468Z,184.90
2023-05-13T05:09:05.499Z,188.91
2023-05-13T05:10:05.513Z,191.05
2023-05-13T05:11:05.517Z,182.42
2023-05-13T05:12:05.541Z,189.36
2023-05-13T05:13:05.561Z,188.64
2023-05-13T05:14:05.607Z,191.51
2023-05-13T05:15:05.614Z,190.11
2023-05-13T05:16:05.636Z,194.01
2023-05-13T05:17:05.730Z,189.00
2023-05-13T05:18:05.780Z,189.15
2023-05-13T05:19:05.775Z,188.12
2023-05-13T05:20:05.758Z,189.96
2023-05-13T05:21:05.818Z,188.16
2023-05-13T05:22:05.821Z,189.58
2023-05-13T05:23:05.831Z,181.45
2023-05-13T05:24:05.879Z,191.90
2023-05-13T05:25:05.900Z,192.72
2023-05-13T05:26:11.620Z,183.85
2023-05-13T05:27:06.916Z,184.24
2023-05-13T05:28:05.924Z,184.78
2023-05-13T05:29:05.913Z,186.90
2023-05-13T05:30:05.898Z,189.72
2023-05-13T05:31:05.897Z,190.38
2023-05-13T05:32:05.955Z,187.04
2023-05-13T05:33:05.918Z,192.72
2023-05-13T05:34:05.886Z,191.28
2023-05-13T05:35:05.860Z,182.83
2023-05-13T05:36:05.851Z,189.17
2023-05-13T05:37:05.846Z,191.92
2023-05-13T05:38:05.843Z,182.95
2023-05-13T05:39:05.849Z,190.19
2023-05-13T05:40:05.830Z,186.95
2023-05-13T05:41:05.825Z,188.20
2023-05-13T05:42:05.823Z,186.13
2023-05-13T05:43:05.805Z,189.65
2023-05-13T05:44:05.800Z,179.87
2023-05-13T05:45:05.815Z,186.69
2023-05-13T05:46:05.833Z,190.45
2023-05-13T05:47:05.837Z,185.93
2023-05-13T05:48:05.891Z,191.02
2023-05-13T05:49:05.898Z,188.52
2023-05-13T05:50:05.908Z,184.48
2023-05-13T05:51:05.937Z,184.08
2023-05-13T05:52:05.959Z,186.60
2023-05-13T05:53:05.979Z,183.63
2023-05-13T05:54:06.019Z,187.56
2023-05-13T05:55:06.024Z,186.59
2023-05-13T05:56:06.056Z,186.46
2023-05-13T05:57:06.087Z,181.40
2023-05-13T05:58:06.108Z,186.77
2023-05-13T05:59:06.145Z,184.73
2023-05-13T06:00:06.191Z,188.09
2023-05-13T06:01:06.223Z,189.04
2023-05-13T06:02:06.277Z,186.46
2023-05-13T06:03:06.478Z,179.30
2023-05-13T06:04:06.327Z,182.77
2023-05-13T06:05:06.304Z,181.89
2023-05-13T06:06:06.337Z,184.93
2023-05-13T06:07:06.442Z,182.99
2023-05-13T06:08:06.397Z,186.15
2023-05-13T06:09:06.431Z,191.64
2023-05-13T06:10:08.243Z,191.31
2023-05-13T06:11:06.490Z,184.24
2023-05-13T06:12:06.532Z,190.20
2023-05-13T06:13:06.540Z,185.18
2023-05-13T06:14:06.581Z,182.07
2023-05-13T06:15:06.599Z,188.05
2023-05-13T06:16:06.756Z,188.57
2023-05-13T06:17:06.653Z,186.49
2023-05-13T06:18:06.710Z,184.74
2023-05-13T06:19:06.790Z,186.36
2023-05-13T06:20:06.754Z,189.41
2023-05-13T06:21:06.787Z,182.94
2023-05-13T06:22:06.812Z,179.49
2023-05-13T06:23:06.833Z,185.21
2023-05-13T06:24:06.892Z,182.29
2023-05-13T06:25:06.886Z,186.81
2023-05-13T06:26:06.932Z,185.37
2023-05-13T06:27:06.968Z,184.29
2023-05-13T06:28:06.976Z,180.76
2023-05-13T06:29:07.008Z,180.75
2023-05-13T06:30:07.040Z,182.71
2023-05-13T06:31:07.086Z,183.51
2023-05-13T06:32:07.088Z,180.84
2023-05-13T06:33:07.198Z,185.20
2023-05-13T06:34:07.160Z,187.64
2023-05-13T06:35:07.180Z,182.12
2023-05-13T06:36:07.214Z,181.68
2023-05-13T06:37:07.239Z,180.55
2023-05-13T06:38:07.260Z,183.55
2023-05-13T06:39:07.297Z,182.60
2023-05-13T06:40:07.324Z,188.37
2023-05-13T06:41:07.383Z,179.60
2023-05-13T06:42:07.405Z,183.69
2023-05-13T06:43:07.436Z,180.57
2023-05-13T06:44:07.482Z,187.04
2023-05-13T06:45:07.492Z,182.03
2023-05-13T06:46:07.527Z,181.64
2023-05-13T06:47:07.580Z,182.66
2023-05-13T06:48:07.691Z,175.30
2023-05-13T06:49:07.605Z,179.58
2023-05-13T06:50:07.632Z,180.52
2023-05-13T06:51:07.663Z,185.72
2023-05-13T06:52:07.679Z,183.82
2023-05-13T06:53:07.697Z,188.46
2023-05-13T06:54:07.728Z,179.80
2023-05-13T06:55:07.779Z,182.91
2023-05-13T06:56:07.785Z,181.15
2023-05-13T06:57:07.817Z,176.77
2023-05-13T06:58:07.826Z,180.10
2023-05-13T06:59:07.892Z,184.85
2023-05-13T07:00:07.894Z,176.83
2023-05-13T07:01:07.999Z,178.82
2023-05-13T07:02:07.933Z,180.14
2023-05-13T07:03:08.006Z,187.85
2023-05-13T07:04:08.166Z,185.13
2023-05-13T07:05:09.750Z,181.89
2023-05-13T07:06:08.006Z,183.93
2023-05-13T07:07:08.001Z,189.03
2023-05-13T07:08:08.002Z,179.64
2023-05-13T07:09:08.542Z,180.56
2023-05-13T07:10:07.985Z,179.86
2023-05-13T07:11:07.969Z,185.65
2023-05-13T07:12:07.957Z,180.16
2023-05-13T07:13:07.976Z,181.09
2023-05-13T07:14:07.951Z,178.66
2023-05-13T07:15:07.932Z,181.60
2023-05-13T07:16:07.927Z,180.56
2023-05-13T07:17:07.955Z,182.87
2023-05-13T07:18:08.022Z,191.80
2023-05-13T07:19:08.006Z,188.61
2023-05-13T07:20:07.904Z,177.40
2023-05-13T07:21:07.903Z,178.78
2023-05-13T07:22:07.887Z,183.98
2023-05-13T07:23:07.885Z,183.02
2023-05-13T07:24:07.876Z,177.09
2023-05-13T07:25:07.871Z,176.62
2023-05-13T07:26:07.868Z,177.92
2023-05-13T07:27:07.850Z,174.92
2023-05-13T07:28:07.853Z,181.95
2023-05-13T07:29:07.846Z,179.43
2023-05-13T07:30:07.838Z,178.82
2023-05-13T07:31:07.863Z,182.35
2023-05-13T07:32:07.812Z,182.39
2023-05-13T07:33:07.878Z,181.68
2023-05-13T07:34:07.813Z,180.91
2023-05-13T07:35:07.794Z,182.58
2023-05-13T07:36:07.778Z,183.37
2023-05-13T07:37:07.805Z,182.95
2023-05-13T07:38:07.817Z,176.48
2023-05-13T07:39:07.765Z,181.15
2023-05-13T07:40:07.818Z,178.45
2023-05-13T07:41:07.766Z,178.82
2023-05-13T07:42:07.734Z,183.97
2023-05-13T07:43:07.724Z,182.01
2023-05-13T07:44:07.743Z,176.30
2023-05-13T07:45:07.733Z,173.27
2023-05-13T07:46:07.706Z,181.37
2023-05-13T07:47:07.767Z,175.98
2023-05-13T07:48:07.720Z,177.66
2023-05-13T07:49:07.740Z,174.85
2023-05-13T07:50:07.687Z,180.04
2023-05-13T07:51:07.688Z,176.13
2023-05-13T07:52:07.678Z,182.06
2023-05-13T07:53:07.658Z,178.98
2023-05-13T07:54:07.720Z,181.02
2023-05-13T07:55:07.642Z,181.39
2023-05-13T07:56:07.646Z,173.50
2023-05-13T07:57:07.636Z,174.74
2023-05-13T07:58:07.632Z,178.89
2023-05-13T07:59:07.628Z,177.87
2023-05-13T08:00:07.620Z,180.02
2023-05-13T08:01:07.600Z,177.30
2023-05-13T08:02:07.616Z,180.32
2023-05-13T08:03:07.700Z,180.41
2023-05-13T08:04:07.706Z,180.91
2023-05-13T08:05:07.628Z,183.94
2023-05-13T08:06:07.577Z,177.78
2023-05-13T08:07:07.563Z,176.15
2023-05-13T08:08:07.567Z,180.98
2023-05-13T08:09:07.549Z,180.35
2023-05-13T08:10:07.562Z,181.15
2023-05-13T08:11:07.551Z,182.34
2023-05-13T08:12:07.524Z,181.38
2023-05-13T08:13:07.534Z,176.96
2023-05-13T08:14:07.528Z,173.21
2023-05-13T08:15:07.547Z,171.36
2023-05-13T08:16:07.565Z,181.37
2023-05-13T08:17:07.526Z,173.49
2023-05-13T08:18:07.524Z,180.58
2023-05-13T08:19:07.570Z,185.28
2023-05-13T08:20:07.488Z,180.25
2023-05-13T08:21:07.481Z,180.07
2023-05-13T08:22:07.469Z,182.89
2023-05-13T08:23:07.481Z,176.18
2023-05-13T08:24:07.450Z,176.80
2023-05-13T08:25:07.444Z,174.22
2023-05-13T08:26:07.440Z,172.53
2023-05-13T08:27:07.444Z,172.62
2023-05-13T08:28:07.454Z,171.91
2023-05-13T08:29:07.476Z,174.42
2023-05-13T08:30:07.485Z,176.83
2023-05-13T08:31:07.486Z,176.43
2023-05-13T08:32:07.599Z,176.66
2023-05-13T08:33:07.537Z,177.94
2023-05-13T08:34:07.526Z,182.54
2023-05-13T08:35:07.554Z,175.16
2023-05-13T08:36:07.560Z,172.27
2023-05-13T08:37:07.555Z,180.91
2023-05-13T08:38:07.568Z,175.24
2023-05-13T08:39:07.583Z,181.67
2023-05-13T08:40:07.605Z,179.63
2023-05-13T08:41:07.611Z,177.60
2023-05-13T08:42:07.608Z,169.19
2023-05-13T08:43:07.621Z,176.11
2023-05-13T08:44:07.642Z,177.45
2023-05-13T08:45:07.648Z,171.18
2023-05-13T08:46:07.720Z,175.47
2023-05-13T08:47:07.655Z,177.29
2023-05-13T08:48:07.714Z,174.37
2023-05-13T08:49:07.685Z,172.09
2023-05-13T08:50:07.737Z,173.00
2023-05-13T08:51:07.688Z,177.47
2023-05-13T08:52:07.702Z,175.42
2023-05-13T08:53:07.715Z,173.82
2023-05-13T08:54:07.761Z,173.48
2023-05-13T08:55:07.733Z,175.41
2023-05-13T08:56:07.731Z,173.78
2023-05-13T08:57:07.767Z,175.36
2023-05-13T08:58:07.771Z,175.11
2023-05-13T08:59:07.772Z,173.07
2023-05-13T09:00:07.781Z,179.56
2023-05-13T09:01:07.861Z,171.97
2023-05-13T09:02:07.800Z,177.83
2023-05-13T09:03:07.820Z,171.93
2023-05-13T09:04:07.814Z,169.95
2023-05-13T09:05:07.899Z,173.55
2023-05-13T09:06:07.825Z,176.86
2023-05-13T09:07:07.853Z,179.42
2023-05-13T09:08:07.852Z,176.98
2023-05-13T09:09:07.856Z,171.38
2023-05-13T09:10:07.897Z,172.84
2023-05-13T09:11:07.878Z,173.88
2023-05-13T09:12:07.917Z,168.19
2023-05-13T09:13:07.903Z,171.36
2023-05-13T09:14:07.927Z,177.18
2023-05-13T09:15:07.928Z,173.27
2023-05-13T09:16:08.010Z,170.78
2023-05-13T09:17:07.995Z,172.04
2023-05-13T09:18:08.138Z,183.82
2023-05-13T09:19:08.067Z,174.21
2023-05-13T09:20:08.016Z,174.23
2023-05-13T09:21:08.001Z,176.13
2023-05-13T09:22:08.001Z,175.86
2023-05-13T09:23:08.024Z,171.81
2023-05-13T09:24:10.258Z,178.39
2023-05-13T09:25:08.023Z,176.97
2023-05-13T09:26:08.013Z,176.00
2023-05-13T09:27:08.012Z,177.69
2023-05-13T09:28:08.070Z,172.94
2023-05-13T09:29:07.978Z,171.74
2023-05-13T09:30:07.984Z,173.44
2023-05-13T09:31:08.044Z,171.46
2023-05-13T09:32:07.978Z,179.26
2023-05-13T09:33:08.074Z,179.99
2023-05-13T09:34:07.970Z,177.30
2023-05-13T09:35:07.952Z,169.70
2023-05-13T09:36:07.935Z,180.94
2023-05-13T09:37:07.948Z,172.53
2023-05-13T09:38:07.926Z,176.07
2023-05-13T09:39:07.929Z,175.19
2023-05-13T09:40:07.914Z,172.45
2023-05-13T09:41:07.931Z,173.92
2023-05-13T09:42:07.928Z,173.32
2023-05-13T09:43:07.876Z,180.84
2023-05-13T09:44:07.874Z,181.25
2023-05-13T09:45:07.875Z,175.59
2023-05-13T09:46:07.871Z,173.71
2023-05-13T09:47:07.993Z,176.28
2023-05-13T09:48:07.884Z,171.82
2023-05-13T09:49:07.849Z,178.07
2023-05-13T09:50:07.842Z,174.80
2023-05-13T09:51:07.841Z,175.43
2023-05-13T09:52:07.822Z,173.89
2023-05-13T09:53:07.812Z,175.63
2023-05-13T09:54:07.813Z,173.29
2023-05-13T09:55:07.810Z,172.84
2023-05-13T09:56:07.793Z,175.90
2023-05-13T09:57:07.795Z,179.49
2023-05-13T09:58:07.787Z,174.90
2023-05-13T09:59:07.815Z,182.85
2023-05-13T10:00:24.894Z,170.40
2023-05-13T10:01:08.774Z,171.05
2023-05-13T10:02:07.822Z,171.57
2023-05-13T10:03:07.771Z,173.55
2023-05-13T10:04:07.810Z,171.65
2023-05-13T10:05:07.742Z,175.79
2023-05-13T10:06:07.737Z,177.90
2023-05-13T10:07:07.725Z,173.28
2023-05-13T10:08:07.709Z,176.01
2023-05-13T10:09:07.707Z,174.49
2023-05-13T10:10:07.705Z,178.46
2023-05-13T10:11:07.700Z,176.17
2023-05-13T10:12:07.690Z,173.71
2023-05-13T10:13:07.680Z,172.00
2023-05-13T10:14:07.663Z,176.91
2023-05-13T10:15:07.680Z,181.10
2023-05-13T10:16:07.725Z,177.08
2023-05-13T10:17:07.666Z,170.66
2023-05-13T10:18:07.786Z,173.04
2023-05-13T10:19:07.702Z,171.39
2023-05-13T10:20:07.629Z,179.31
2023-05-13T10:21:07.628Z,172.89
2023-05-13T10:22:07.642Z,175.27
2023-05-13T10:23:07.617Z,172.19
2023-05-13T10:24:07.616Z,177.24
2023-05-13T10:25:07.594Z,171.40
2023-05-13T10:26:07.583Z,180.41
2023-05-13T10:27:07.585Z,185.69
2023-05-13T10:28:07.575Z,180.57
2023-05-13T10:29:07.576Z,175.53
2023-05-13T10:30:07.561Z,174.00
2023-05-13T10:31:07.592Z,173.59
2023-05-13T10:32:07.560Z,177.06
2023-05-13T10:33:07.561Z,175.20
2023-05-13T10:34:07.557Z,170.17
2023-05-13T10:35:07.560Z,176.36
2023-05-13T10:36:07.555Z,174.49
2023-05-13T10:37:07.578Z,175.17
2023-05-13T10:38:07.583Z,179.58
2023-05-13T10:39:07.591Z,171.96
2023-05-13T10:40:07.703Z,177.13
2023-05-13T10:41:07.619Z,174.44
2023-05-13T10:42:07.630Z,172.37
2023-05-13T10:43:07.644Z,177.02
2023-05-13T10:44:09.830Z,177.52
2023-05-13T10:45:07.666Z,176.51
2023-05-13T10:46:07.770Z,175.12
2023-05-13T10:47:07.755Z,177.08
2023-05-13T10:48:07.924Z,177.21
2023-05-13T10:49:07.713Z,175.98
2023-05-13T10:50:07.755Z,172.50
2023-05-13T10:51:07.751Z,172.87
2023-05-13T10:52:07.764Z,179.82
2023-05-13T10:53:07.761Z,176.65
2023-05-13T10:54:07.799Z,173.52
2023-05-13T10:55:07.791Z,178.19
2023-05-13T10:56:07.848Z,176.50
2023-05-13T10:57:07.836Z,171.06
2023-05-13T10:58:07.834Z,178.65
2023-05-13T10:59:07.849Z,178.24
2023-05-13T11:00:07.871Z,174.41
2023-05-13T11:01:07.922Z,168.73
2023-05-13T11:02:07.904Z,172.89
2023-05-13T11:03:07.942Z,182.37
2023-05-13T11:04:08.156Z,169.09
2023-05-13T11:05:07.912Z,171.80
2023-05-13T11:06:07.918Z,176.34
2023-05-13T11:07:07.931Z,176.34
2023-05-13T11:08:07.955Z,172.97
2023-05-13T11:09:07.963Z,182.18
2023-05-13T11:10:07.966Z,176.96
2023-05-13T11:11:07.987Z,175.29
2023-05-13T11:12:08.000Z,169.16
2023-05-13T11:13:08.008Z,181.81
2023-05-13T11:14:08.539Z,180.22
2023-05-13T11:15:08.021Z,175.00
2023-05-13T11:16:08.081Z,177.64
2023-05-13T11:17:08.046Z,176.26
2023-05-13T11:18:08.101Z,179.01
2023-05-13T11:19:08.240Z,173.57
2023-05-13T11:20:08.090Z,177.46
2023-05-13T11:21:08.109Z,173.24
2023-05-13T11:22:08.079Z,174.60
2023-05-13T11:23:08.090Z,177.36
2023-05-13T11:24:08.113Z,172.20
2023-05-13T11:25:08.118Z,172.61
2023-05-13T11:26:10.056Z,172.67
2023-05-13T11:27:08.121Z,184.99
2023-05-13T11:28:08.116Z,170.81
2023-05-13T11:29:08.126Z,174.31
2023-05-13T11:30:08.105Z,172.49
2023-05-13T11:31:08.104Z,172.58
2023-05-13T11:32:08.090Z,174.30
2023-05-13T11:33:08.187Z,174.87
2023-05-13T11:34:08.080Z,166.43
2023-05-13T11:35:08.068Z,172.09
2023-05-13T11:36:08.069Z,170.14
2023-05-13T11:37:08.071Z,170.79
2023-05-13T11:38:08.047Z,169.21
2023-05-13T11:39:08.036Z,174.75
2023-05-13T11:40:08.055Z,170.26
2023-05-13T11:41:08.044Z,176.38
2023-05-13T11:42:08.020Z,171.05
2023-05-13T11:43:08.014Z,172.20
2023-05-13T11:44:08.007Z,168.39
2023-05-13T11:45:08.004Z,170.04
2023-05-13T11:46:08.048Z,172.54
2023-05-13T11:47:08.116Z,167.42
2023-05-13T11:48:08.009Z,165.92
2023-05-13T11:49:07.961Z,169.85
2023-05-13T11:50:07.959Z,170.92
2023-05-13T11:51:07.957Z,170.03
2023-05-13T11:52:07.960Z,168.93
2023-05-13T11:53:07.934Z,171.08
2023-05-13T11:54:07.934Z,178.64
2023-05-13T11:55:07.930Z,175.63
2023-05-13T11:56:07.928Z,165.80
2023-05-13T11:57:07.908Z,170.74
2023-05-13T11:58:07.906Z,174.31
2023-05-13T11:59:07.911Z,173.37
2023-05-13T12:00:07.912Z,173.96
2023-05-13T12:01:08.537Z,171.59
2023-05-13T12:02:08.026Z,176.50
2023-05-13T12:03:08.104Z,172.00
2023-05-13T12:04:07.890Z,174.52
2023-05-13T12:05:07.931Z,175.95
2023-05-13T12:06:07.850Z,170.61
2023-05-13T12:07:07.854Z,172.68
2023-05-13T12:08:07.838Z,170.75
2023-05-13T12:09:07.865Z,169.61
2023-05-13T12:10:07.827Z,169.66
2023-05-13T12:11:07.821Z,171.43
2023-05-13T12:12:07.807Z,171.01
2023-05-13T12:13:07.797Z,176.83
2023-05-13T12:14:07.802Z,169.04
2023-05-13T12:15:07.792Z,174.14
2023-05-13T12:16:07.842Z,170.07
2023-05-13T12:17:07.766Z,177.41
2023-05-13T12:18:07.877Z,174.63
2023-05-13T12:19:07.886Z,178.35
2023-05-13T12:20:07.748Z,171.42
2023-05-13T12:21:07.745Z,175.38
2023-05-13T12:22:07.732Z,174.38
2023-05-13T12:23:07.725Z,172.70
2023-05-13T12:24:07.713Z,171.30
2023-05-13T12:25:07.714Z,173.43
2023-05-13T12:26:07.718Z,174.78
2023-05-13T12:27:09.473Z,178.24
2023-05-13T12:28:07.692Z,178.31